createdAt,value
2023-05-08T00:00:15.668Z,0.30
2023-05-08T00:02:45.146Z,0.38
2023-05-08T00:05:13.113Z,0.40
2023-05-08T00:07:41.214Z,0.47
2023-05-08T00:10:10.850Z,0.30
2023-05-08T00:12:39.166Z,0.40
2023-05-08T00:15:09.122Z,0.50
2023-05-08T00:17:37.217Z,0.50
2023-05-08T00:20:08.711Z,0.40
2023-05-08T00:22:36.691Z,0.25
2023-05-08T00:25:05.702Z,0.50
2023-05-08T00:27:33.796Z,0.35
2023-05-08T00:30:01.766Z,0.50
2023-05-08T00:32:29.952Z,0.40
2023-05-08T00:34:57.875Z,0.40
2023-05-08T00:37:27.167Z,0.30
2023-05-08T00:39:55.099Z,0.40
2023-05-08T00:42:23.010Z,0.43
2023-05-08T00:44:51.085Z,0.30
2023-05-08T00:47:19.333Z,0.40
2023-05-08T00:49:47.386Z,0.40
2023-05-08T00:52:15.368Z,0.30
2023-05-08T00:54:46.330Z,0.30
2023-05-08T00:57:16.641Z,0.40
2023-05-08T00:59:47.057Z,0.43
2023-05-08T01:02:15.551Z,0.50
2023-05-08T01:04:45.674Z,0.30
2023-05-08T01:07:13.606Z,0.30
2023-05-08T01:09:41.575Z,0.40
2023-05-08T01:12:34.585Z,0.40
2023-05-08T01:15:16.849Z,0.50
2023-05-08T01:18:03.531Z,0.30
2023-05-08T01:20:47.547Z,0.55
2023-05-08T01:24:07.258Z,0.35
2023-05-08T01:27:31.053Z,0.40
2023-05-08T01:30:41.150Z,0.38
2023-05-08T01:33:21.026Z,0.30
2023-05-08T01:35:58.336Z,0.32
2023-05-08T01:38:36.879Z,0.38
2023-05-08T01:41:13.076Z,0.50
2023-05-08T01:43:56.425Z,0.50
2023-05-08T01:46:30.921Z,0.40
2023-05-08T01:49:10.258Z,0.40
2023-05-08T01:51:45.004Z,0.47
2023-05-08T01:54:21.065Z,0.40
2023-05-08T01:56:51.367Z,0.40
2023-05-08T01:59:25.689Z,0.40
2023-05-08T02:02:00.071Z,0.40
2023-05-08T02:04:31.570Z,0.38
2023-05-08T02:07:01.948Z,0.50
2023-05-08T02:09:32.484Z,0.50
2023-05-08T02:12:03.998Z,0.50
2023-05-08T02:14:33.906Z,0.30
2023-05-08T02:17:06.364Z,0.30
2023-05-08T02:19:40.857Z,0.40
2023-05-08T02:22:11.043Z,0.30
2023-05-08T02:24:40.646Z,0.40
2023-05-08T02:27:12.258Z,0.40
2023-05-08T02:29:41.222Z,0.40
2023-05-08T02:32:12.167Z,0.47
2023-05-08T02:34:54.957Z,0.40
2023-05-08T02:37:32.803Z,0.40
2023-05-08T02:40:05.024Z,0.30
2023-05-08T02:42:33.285Z,0.50
2023-05-08T02:45:01.481Z,0.40
2023-05-08T02:47:40.491Z,0.52
2023-05-08T02:50:20.730Z,0.50
2023-05-08T02:52:53.880Z,0.57
2023-05-08T02:55:36.962Z,0.40
2023-05-08T02:58:16.885Z,0.30
2023-05-08T03:00:52.020Z,0.40
2023-05-08T03:03:27.146Z,0.40
2023-05-08T03:06:03.893Z,0.30
2023-05-08T03:08:36.286Z,0.40
2023-05-08T03:11:13.104Z,0.40
2023-05-08T03:13:43.974Z,0.40
2023-05-08T03:16:19.237Z,0.50
2023-05-08T03:19:11.435Z,0.50
2023-05-08T03:21:45.216Z,0.55
2023-05-08T03:24:18.505Z,0.50
2023-05-08T03:26:47.475Z,0.40
2023-05-08T03:29:17.647Z,0.50
2023-05-08T03:31:47.385Z,0.30
2023-05-08T03:34:18.580Z,0.50
2023-05-08T03:36:48.110Z,0.40
2023-05-08T03:39:16.172Z,0.60
2023-05-08T03:41:45.535Z,0.50
2023-05-08T03:44:14.844Z,0.40
2023-05-08T03:46:44.083Z,0.60
2023-05-08T03:49:15.790Z,0.40
2023-05-08T03:51:44.978Z,0.50
2023-05-08T03:54:14.324Z,0.40
2023-05-08T03:56:42.236Z,0.50
2023-05-08T03:59:22.571Z,0.50
2023-05-08T04:02:00.277Z,0.50
2023-05-08T04:04:40.702Z,0.47
2023-05-08T04:07:14.958Z,0.38
2023-05-08T04:10:01.336Z,0.40
2023-05-08T04:12:40.882Z,0.40
2023-05-08T04:15:18.504Z,0.30
2023-05-08T04:17:54.320Z,0.40
2023-05-08T04:20:27.090Z,0.40
2023-05-08T04:22:56.912Z,0.30
2023-05-08T04:25:27.417Z,0.30
2023-05-08T04:27:57.607Z,0.30
2023-05-08T04:30:27.065Z,0.20
2023-05-08T04:32:56.059Z,0.30
2023-05-08T04:35:24.400Z,0.40
2023-05-08T04:37:52.750Z,0.30
2023-05-08T04:40:20.869Z,0.30
2023-05-08T04:42:50.290Z,0.30
2023-05-08T04:45:19.361Z,0.30
2023-05-08T04:47:47.406Z,0.28
2023-05-08T04:50:15.462Z,0.20
2023-05-08T04:52:43.368Z,0.30
2023-05-08T04:55:12.070Z,0.40
2023-05-08T04:57:40.199Z,0.33
2023-05-08T05:00:11.419Z,0.25
2023-05-08T05:02:39.305Z,0.22
2023-05-08T05:05:08.737Z,0.30
2023-05-08T05:07:36.640Z,0.40
2023-05-08T05:10:05.217Z,0.20
2023-05-08T05:12:33.146Z,0.30
2023-05-08T05:15:01.506Z,0.30
2023-05-08T05:17:31.854Z,0.30
2023-05-08T05:19:59.900Z,0.30
2023-05-08T05:22:28.995Z,0.30
2023-05-08T05:24:56.915Z,0.40
2023-05-08T05:27:24.800Z,0.30
2023-05-08T05:29:53.136Z,0.20
2023-05-08T05:32:21.515Z,0.30
2023-05-08T05:34:50.844Z,0.30
2023-05-08T05:37:19.513Z,0.22
2023-05-08T05:39:47.469Z,0.30
2023-05-08T05:42:15.465Z,0.38
2023-05-08T05:44:43.409Z,0.38
2023-05-08T05:47:11.608Z,0.35
2023-05-08T05:49:43.014Z,0.45
2023-05-08T05:52:12.434Z,0.30
2023-05-08T05:54:41.381Z,0.30
2023-05-08T05:57:10.572Z,0.40
2023-05-08T05:59:38.494Z,0.40
2023-05-08T06:02:07.720Z,0.30
2023-05-08T06:04:35.843Z,0.50
2023-05-08T06:07:03.860Z,0.30
2023-05-08T06:09:33.053Z,0.30
2023-05-08T06:12:00.952Z,0.30
2023-05-08T06:14:28.904Z,0.40
2023-05-08T06:16:56.898Z,0.40
2023-05-08T06:19:25.214Z,0.40
2023-05-08T06:21:53.222Z,0.30
2023-05-08T06:24:21.392Z,0.40
2023-05-08T06:26:50.670Z,0.35
2023-05-08T06:29:18.629Z,0.40
2023-05-08T06:31:46.511Z,0.40
2023-05-08T06:34:14.627Z,0.40
2023-05-08T06:36:42.536Z,0.47
2023-05-08T06:39:10.477Z,0.40
2023-05-08T06:41:38.826Z,0.30
2023-05-08T06:44:08.230Z,0.38
2023-05-08T06:46:36.175Z,0.30
2023-05-08T06:49:04.118Z,0.40
2023-05-08T06:51:32.797Z,0.40
2023-05-08T06:54:00.793Z,0.35
2023-05-08T06:56:28.964Z,0.32
2023-05-08T06:59:07.763Z,0.40
2023-05-08T07:04:06.938Z,0.35
2023-05-08T07:06:35.139Z,0.40
2023-05-08T07:09:03.157Z,0.40
2023-05-08T07:11:31.080Z,0.38
2023-05-08T07:13:58.951Z,0.40
2023-05-08T07:16:27.022Z,0.30
2023-05-08T07:18:56.321Z,0.30
2023-05-08T07:21:24.975Z,0.30
2023-05-08T07:23:53.799Z,0.30
2023-05-08T07:26:22.427Z,0.40
2023-05-08T07:28:50.760Z,0.30
2023-05-08T07:31:18.862Z,0.40
2023-05-08T07:33:46.921Z,0.30
2023-05-08T07:36:16.277Z,0.40
2023-05-08T07:38:44.236Z,0.30
2023-05-08T07:41:12.422Z,0.25
2023-05-08T07:43:40.492Z,0.40
2023-05-08T07:46:08.462Z,0.30
2023-05-08T07:48:36.428Z,0.40
2023-05-08T07:51:04.469Z,0.32
2023-05-08T07:53:33.777Z,0.30
2023-05-08T07:56:01.738Z,0.40
2023-05-08T07:58:29.716Z,0.38
2023-05-08T08:00:57.806Z,0.40
2023-05-08T08:03:25.794Z,0.40
2023-05-08T08:05:54.039Z,0.38
2023-05-08T08:08:22.034Z,0.40
2023-05-08T08:10:51.465Z,0.75
2023-05-08T08:13:19.425Z,0.40
2023-05-08T08:15:47.312Z,0.30
2023-05-08T08:18:15.541Z,0.35
2023-05-08T08:20:44.170Z,0.50
2023-05-08T08:23:12.266Z,0.40
2023-05-08T08:25:40.204Z,0.20
2023-05-08T08:28:09.468Z,0.30
2023-05-08T08:30:37.412Z,0.30
2023-05-08T08:33:06.375Z,0.38
2023-05-08T08:35:35.145Z,0.30
2023-05-08T08:38:03.168Z,0.30
2023-05-08T08:40:31.417Z,0.40
2023-05-08T08:43:00.121Z,0.20
2023-05-08T08:45:29.468Z,0.40
2023-05-08T08:48:03.514Z,0.20
2023-05-08T08:50:33.853Z,0.50
2023-05-08T08:53:11.373Z,0.30
2023-05-08T08:55:45.647Z,0.40
2023-05-08T08:58:22.943Z,0.30
2023-05-08T09:00:55.080Z,0.30
2023-05-08T09:03:23.320Z,0.30
2023-05-08T09:05:52.623Z,0.30
2023-05-08T09:08:20.794Z,0.30
2023-05-08T09:10:48.968Z,0.30
2023-05-08T09:13:19.838Z,0.28
2023-05-08T09:15:49.154Z,0.30
2023-05-08T09:18:19.325Z,0.40
2023-05-08T09:20:47.865Z,0.30
2023-05-08T09:23:17.363Z,0.30
2023-05-08T09:25:46.644Z,0.30
2023-05-08T09:28:19.161Z,0.38
2023-05-08T09:30:52.283Z,0.30
2023-05-08T09:33:23.477Z,0.20
2023-05-08T09:35:51.448Z,0.30
2023-05-08T09:38:38.110Z,0.20
2023-05-08T09:41:15.263Z,0.30
2023-05-08T09:43:45.312Z,0.30
2023-05-08T09:46:24.834Z,0.30
2023-05-08T09:48:56.678Z,0.20
2023-05-08T09:51:25.494Z,0.30
2023-05-08T09:53:55.307Z,0.30
2023-05-08T09:59:10.288Z,0.20
2023-05-08T10:01:39.705Z,0.20
2023-05-08T10:04:09.227Z,0.30
2023-05-08T10:06:37.376Z,0.30
2023-05-08T10:09:13.241Z,0.38
2023-05-08T10:11:42.345Z,0.20
2023-05-08T10:14:10.758Z,0.45
2023-05-08T10:16:45.142Z,0.30
2023-05-08T10:19:20.103Z,0.30
2023-05-08T10:21:50.873Z,0.30
2023-05-08T10:24:21.402Z,0.30
2023-05-08T10:27:07.855Z,0.30
2023-05-08T10:29:50.012Z,0.30
2023-05-08T10:32:21.926Z,0.30
2023-05-08T10:34:57.496Z,0.32
2023-05-08T10:37:25.694Z,0.30
2023-05-08T10:39:58.282Z,0.30
2023-05-08T10:42:28.673Z,0.30
2023-05-08T10:44:57.591Z,0.30
2023-05-08T10:47:34.673Z,0.20
2023-05-08T10:50:20.382Z,0.30
2023-05-08T10:53:01.105Z,0.20
2023-05-08T10:55:32.812Z,0.30
2023-05-08T10:58:06.422Z,0.30
2023-05-08T11:01:13.581Z,0.30
2023-05-08T11:03:47.521Z,0.20
2023-05-08T11:06:17.588Z,0.20
2023-05-08T11:08:50.289Z,0.30
2023-05-08T11:11:33.755Z,0.30
2023-05-08T11:14:16.079Z,0.30
2023-05-08T11:17:09.960Z,0.35
2023-05-08T11:19:39.484Z,0.30
2023-05-08T11:22:30.024Z,0.30
2023-05-08T11:25:02.866Z,0.30
2023-05-08T11:28:11.351Z,0.20
2023-05-08T11:30:41.398Z,0.30
2023-05-08T11:33:17.866Z,0.30
2023-05-08T11:35:57.724Z,0.30
2023-05-08T11:38:35.689Z,0.40
2023-05-08T11:41:07.408Z,0.20
2023-05-08T11:44:18.483Z,0.30
2023-05-08T11:46:52.489Z,0.30
2023-05-08T11:49:26.904Z,0.38
2023-05-08T11:52:00.714Z,0.30
2023-05-08T11:54:33.270Z,0.30
2023-05-08T11:57:01.851Z,0.25
2023-05-08T11:59:30.093Z,0.20
2023-05-08T12:02:07.910Z,0.30
2023-05-08T12:04:46.564Z,0.20
2023-05-08T12:07:15.931Z,0.20
2023-05-08T12:09:47.681Z,0.20
2023-05-08T12:12:15.722Z,0.20
2023-05-08T12:14:43.795Z,0.20
2023-05-08T12:17:11.990Z,0.30
2023-05-08T12:19:40.167Z,0.30
2023-05-08T12:22:10.015Z,0.20
2023-05-08T12:27:07.699Z,0.30
2023-05-08T12:29:38.288Z,0.22
2023-05-08T12:32:06.957Z,0.20
2023-05-08T12:34:36.123Z,0.25
2023-05-08T12:37:05.176Z,0.28
2023-05-08T12:39:38.449Z,0.22
2023-05-08T12:42:07.964Z,0.20
2023-05-08T12:44:35.985Z,0.20
2023-05-08T12:47:07.117Z,0.30
2023-05-08T12:49:35.463Z,0.20
2023-05-08T12:52:08.153Z,0.20
2023-05-08T12:54:39.052Z,0.22
2023-05-08T12:57:12.788Z,0.20
2023-05-08T12:59:41.281Z,0.20
2023-05-08T13:02:17.272Z,0.30
2023-05-08T13:04:46.879Z,0.20
2023-05-08T13:07:15.637Z,0.20
2023-05-08T13:09:59.778Z,0.20
2023-05-08T13:12:29.328Z,0.10
2023-05-08T13:14:57.516Z,0.20
2023-05-08T13:17:25.545Z,0.30
2023-05-08T13:19:53.771Z,0.17
2023-05-08T13:22:26.361Z,0.25
2023-05-08T13:24:54.547Z,0.30
2023-05-08T13:27:22.668Z,0.20
2023-05-08T13:29:52.071Z,0.30
2023-05-08T13:32:20.780Z,0.20
2023-05-08T13:34:51.094Z,0.30
2023-05-08T13:37:21.031Z,0.22
2023-05-08T13:39:48.972Z,0.20
2023-05-08T13:42:16.935Z,0.20
2023-05-08T13:44:44.868Z,0.20
2023-05-08T13:47:14.240Z,0.20
2023-05-08T13:49:42.334Z,0.30
2023-05-08T13:52:10.316Z,0.20
2023-05-08T13:54:38.417Z,0.30
2023-05-08T13:57:06.653Z,0.20
2023-05-08T13:59:34.732Z,0.20
2023-05-08T14:02:03.054Z,0.20
2023-05-08T14:04:32.594Z,0.30
2023-05-08T14:07:00.807Z,0.30
2023-05-08T14:09:30.743Z,0.20
2023-05-08T14:11:58.770Z,0.20
2023-05-08T14:14:26.763Z,0.20
2023-05-08T14:16:54.936Z,0.20
2023-05-08T14:19:22.902Z,0.20
2023-05-08T14:21:52.793Z,0.20
2023-05-08T14:24:20.831Z,0.22
2023-05-08T14:26:48.890Z,0.20
2023-05-08T14:29:18.720Z,0.20
2023-05-08T14:34:14.649Z,0.20
2023-05-08T14:36:42.765Z,0.20
2023-05-08T14:39:12.177Z,0.20
2023-05-08T14:41:40.350Z,0.20
2023-05-08T14:44:08.424Z,0.35
2023-05-08T14:46:36.441Z,0.10
2023-05-08T14:49:04.648Z,0.13
2023-05-08T14:51:32.640Z,0.10
2023-05-08T14:54:01.076Z,0.10
2023-05-08T14:56:40.486Z,0.10
2023-05-08T14:59:14.745Z,0.10
2023-05-08T15:01:43.175Z,0.10
2023-05-08T15:04:11.825Z,0.17
2023-05-08T15:06:41.398Z,0.10
2023-05-08T15:09:10.288Z,0.10
2023-05-08T15:11:39.705Z,0.10
2023-05-08T15:14:07.649Z,0.10
2023-05-08T15:16:35.737Z,0.10
2023-05-08T15:19:03.729Z,0.10
2023-05-08T15:21:31.762Z,0.10
2023-05-08T15:23:59.830Z,0.10
2023-05-08T15:26:27.791Z,0.10
2023-05-08T15:28:57.062Z,0.10
2023-05-08T15:31:25.148Z,0.10
2023-05-08T15:33:53.119Z,0.10
2023-05-08T15:36:21.628Z,0.10
2023-05-08T15:38:50.030Z,0.10
2023-05-08T15:41:18.038Z,0.10
2023-05-08T15:43:46.146Z,0.10
2023-05-08T15:46:15.676Z,0.10
2023-05-08T15:51:11.698Z,0.10
2023-05-08T15:53:39.748Z,0.10
2023-05-08T15:56:08.235Z,0.10
2023-05-08T15:58:36.836Z,0.10
2023-05-08T16:01:05.531Z,0.10
2023-05-08T16:03:35.367Z,0.10
2023-05-08T16:06:03.489Z,0.10
2023-05-08T16:08:31.472Z,0.10
2023-05-08T16:10:59.445Z,0.10
2023-05-08T16:13:27.475Z,0.10
2023-05-08T16:15:55.755Z,0.10
2023-05-08T16:18:23.767Z,0.10
2023-05-08T16:20:53.054Z,0.10
2023-05-08T16:23:20.894Z,0.10
2023-05-08T16:25:49.431Z,0.10
2023-05-08T16:28:18.217Z,0.10
2023-05-08T16:30:46.275Z,0.13
2023-05-08T16:33:14.142Z,0.10
2023-05-08T16:35:42.162Z,0.10
2023-05-08T16:38:34.025Z,0.10
2023-05-08T16:41:05.904Z,0.10
2023-05-08T16:43:34.382Z,0.10
2023-05-08T16:47:33.482Z,0.13
2023-05-08T16:50:02.096Z,0.10
2023-05-08T16:52:30.518Z,0.17
2023-05-08T16:55:00.356Z,0.10
2023-05-08T16:57:28.645Z,0.10
2023-05-08T16:59:56.516Z,0.10
2023-05-08T17:02:24.547Z,0.10
2023-05-08T17:04:52.567Z,0.10
2023-05-08T17:07:20.521Z,0.10
2023-05-08T17:09:52.844Z,0.10
2023-05-08T17:12:22.182Z,0.10
2023-05-08T17:14:50.165Z,0.10
2023-05-08T17:17:18.058Z,0.17
2023-05-08T17:19:46.015Z,0.20
2023-05-08T17:22:15.140Z,0.20
2023-05-08T17:24:43.046Z,0.20
2023-05-08T17:27:11.352Z,0.20
2023-05-08T17:29:40.774Z,0.20
2023-05-08T17:32:08.784Z,0.20
2023-05-08T17:34:36.815Z,0.20
2023-05-08T17:37:04.789Z,0.20
2023-05-08T17:39:32.949Z,0.30
2023-05-08T17:42:00.889Z,0.20
2023-05-08T17:44:28.811Z,0.20
2023-05-08T17:46:58.162Z,0.30
2023-05-08T17:49:26.116Z,0.20
2023-05-08T17:51:53.995Z,0.25
2023-05-08T17:54:22.002Z,0.20
2023-05-08T17:56:49.939Z,0.20
2023-05-08T17:59:17.836Z,0.30
2023-05-08T18:01:45.746Z,0.20
2023-05-08T18:04:15.319Z,0.25
2023-05-08T18:06:47.337Z,0.20
2023-05-08T18:09:15.295Z,0.20
2023-05-08T18:11:43.216Z,0.30
2023-05-08T18:14:11.131Z,0.20
2023-05-08T18:16:39.094Z,0.30
2023-05-08T18:19:07.016Z,0.30
2023-05-08T18:21:36.269Z,0.30
2023-05-08T18:24:04.416Z,0.20
2023-05-08T18:26:32.311Z,0.25
2023-05-08T18:29:00.241Z,0.30
2023-05-08T18:31:28.162Z,0.30
2023-05-08T18:33:56.120Z,0.30
2023-05-08T18:36:24.327Z,0.40
2023-05-08T18:38:53.601Z,0.40
2023-05-08T18:41:22.444Z,0.30
2023-05-08T18:43:50.503Z,0.20
2023-05-08T18:46:18.581Z,0.30
2023-05-08T18:48:46.929Z,0.22
2023-05-08T18:51:14.950Z,0.30
2023-05-08T18:53:42.906Z,0.30
2023-05-08T18:56:12.638Z,0.30
2023-05-08T19:01:09.022Z,0.30
2023-05-08T19:03:37.288Z,0.30
2023-05-08T19:06:09.432Z,0.30
2023-05-08T19:08:37.387Z,0.30
2023-05-08T19:11:05.314Z,0.30
2023-05-08T19:13:34.754Z,0.30
2023-05-08T19:16:02.726Z,0.40
2023-05-08T19:18:31.310Z,0.28
2023-05-08T19:20:59.405Z,0.30
2023-05-08T19:23:27.357Z,0.30
2023-05-08T19:25:55.348Z,0.40
2023-05-08T19:28:23.298Z,0.40
2023-05-08T19:30:52.690Z,0.40
2023-05-08T19:33:20.850Z,0.30
2023-05-08T19:35:49.543Z,0.20
2023-05-08T19:38:17.569Z,0.30
2023-05-08T19:40:56.582Z,0.30
2023-05-08T19:43:25.590Z,0.28
2023-05-08T19:45:58.015Z,0.30
2023-05-08T19:48:26.017Z,0.30
2023-05-08T19:50:55.031Z,0.30
2023-05-08T19:53:23.571Z,0.40
2023-05-08T19:55:51.445Z,0.40
2023-05-08T19:58:19.593Z,0.30
2023-05-08T20:03:19.926Z,0.40
2023-05-08T20:05:47.914Z,0.40
2023-05-08T20:08:15.894Z,0.30
2023-05-08T20:10:44.122Z,0.40
2023-05-08T20:13:12.241Z,0.30
2023-05-08T20:15:40.205Z,0.25
2023-05-08T20:18:08.381Z,0.40
2023-05-08T20:20:40.428Z,0.30
2023-05-08T20:23:08.418Z,0.30
2023-05-08T20:25:36.428Z,0.38
2023-05-08T20:28:04.480Z,0.30
2023-05-08T20:30:41.472Z,0.30
2023-05-08T20:33:09.544Z,0.30
2023-05-08T20:35:41.084Z,0.30
2023-05-08T20:38:16.511Z,0.25
2023-05-08T20:40:44.529Z,0.20
2023-05-08T20:43:12.593Z,0.30
2023-05-08T20:45:40.630Z,0.30
2023-05-08T20:48:08.645Z,0.30
2023-05-08T20:50:37.923Z,0.40
2023-05-08T20:53:05.894Z,0.30
2023-05-08T20:55:33.866Z,0.40
2023-05-08T20:58:03.541Z,0.40
2023-05-08T21:00:31.819Z,0.30
2023-05-08T21:02:59.884Z,0.30
2023-05-08T21:05:27.916Z,0.30
2023-05-08T21:08:00.097Z,0.40
2023-05-08T21:10:30.520Z,0.30
2023-05-08T21:12:58.395Z,0.30
2023-05-08T21:15:26.321Z,0.32
2023-05-08T21:17:54.275Z,0.40
2023-05-08T21:20:22.342Z,0.30
2023-05-08T21:22:50.278Z,0.30
2023-05-08T21:25:20.333Z,0.40
2023-05-08T21:27:48.301Z,0.30
2023-05-08T21:30:16.525Z,0.30
2023-05-08T21:32:45.771Z,0.25
2023-05-08T21:35:14.269Z,0.30
2023-05-08T21:37:42.338Z,0.25
2023-05-08T21:40:10.981Z,0.20
2023-05-08T21:42:40.736Z,0.30
2023-05-08T21:47:37.116Z,0.30
2023-05-08T21:50:05.834Z,0.30
2023-05-08T21:52:33.951Z,0.30
2023-05-08T21:55:01.912Z,0.30
2023-05-08T21:57:29.803Z,0.30
2023-05-08T21:59:59.223Z,0.40
2023-05-08T22:02:27.302Z,0.38
2023-05-08T22:04:55.282Z,0.40
2023-05-08T22:07:23.234Z,0.30
2023-05-08T22:09:51.620Z,0.30
2023-05-08T22:12:19.850Z,0.30
2023-05-08T22:14:47.780Z,0.30
2023-05-08T22:17:17.069Z,0.40
2023-05-08T22:19:44.972Z,0.47
2023-05-08T22:22:12.890Z,0.22
2023-05-08T22:24:40.840Z,0.40
2023-05-08T22:27:08.701Z,0.50
2023-05-08T22:29:36.533Z,0.43
2023-05-08T22:32:04.672Z,0.40
2023-05-08T22:34:33.916Z,0.50
2023-05-08T22:37:01.922Z,0.30
2023-05-08T22:39:30.121Z,0.30
2023-05-08T22:41:58.198Z,0.50
2023-05-08T22:44:26.223Z,0.50
2023-05-08T22:46:54.139Z,0.40
2023-05-08T22:49:22.197Z,0.40
2023-05-08T22:51:51.995Z,0.30
2023-05-08T22:56:48.293Z,0.40
2023-05-08T22:59:16.302Z,0.40
2023-05-08T23:01:44.466Z,0.40
2023-05-08T23:04:12.384Z,0.30
2023-05-08T23:06:40.308Z,0.45
2023-05-08T23:09:09.716Z,0.35
2023-05-08T23:11:37.735Z,0.38
2023-05-08T23:14:05.659Z,0.45
2023-05-08T23:16:33.599Z,0.30
2023-05-08T23:19:01.590Z,0.30
2023-05-08T23:21:29.610Z,0.40
2023-05-08T23:23:57.538Z,0.30
2023-05-08T23:26:26.869Z,0.30
2023-05-08T23:28:54.719Z,0.35
2023-05-08T23:31:22.775Z,0.40
2023-05-08T23:33:50.746Z,0.47
2023-05-08T23:36:18.761Z,0.35
2023-05-08T23:38:46.814Z,0.40
2023-05-08T23:41:14.948Z,0.30
2023-05-08T23:43:44.253Z,0.45
2023-05-08T23:46:12.315Z,0.45
2023-05-08T23:48:40.440Z,0.40
2023-05-08T23:51:08.419Z,0.30
2023-05-08T23:53:36.354Z,0.50
2023-05-08T23:56:04.301Z,0.30
2023-05-08T23:58:32.220Z,0.30
